createdAt,value
2018-01-15T00:01:29.953Z,55.10
2018-01-15T00:03:56.808Z,55.00
2018-01-15T00:06:23.486Z,55.00
2018-01-15T00:08:50.157Z,55.10
2018-01-15T00:11:16.932Z,54.70
2018-01-15T00:13:43.642Z,54.40
2018-01-15T00:16:10.404Z,54.90
2018-01-15T00:18:38.670Z,54.90
2018-01-15T00:21:05.336Z,55.10
2018-01-15T00:23:32.381Z,55.10
2018-01-15T00:25:59.069Z,55.10
2018-01-15T00:28:25.826Z,55.10
2018-01-15T00:30:52.508Z,54.80
2018-01-15T00:33:19.215Z,55.10
2018-01-15T00:35:45.981Z,54.90
2018-01-15T00:38:13.042Z,55.00
2018-01-15T00:40:39.691Z,55.00
2018-01-15T00:43:08.741Z,54.50
2018-01-15T00:45:35.827Z,54.70
2018-01-15T00:48:02.883Z,54.50
2018-01-15T00:50:29.706Z,54.30
2018-01-15T00:52:56.753Z,54.50
2018-01-15T00:55:24.176Z,54.30
2018-01-15T00:57:51.239Z,54.20
2018-01-15T01:00:18.656Z,54.20
2018-01-15T01:02:45.319Z,54.20
2018-01-15T01:05:12.367Z,54.30
2018-01-15T01:07:39.434Z,54.50
2018-01-15T01:10:08.735Z,54.30
2018-01-15T01:12:36.212Z,54.20
2018-01-15T01:15:03.253Z,54.50
2018-01-15T01:17:29.982Z,54.40
2018-01-15T01:19:57.755Z,54.20
2018-01-15T01:22:25.161Z,54.30
2018-01-15T01:24:52.240Z,54.30
2018-01-15T01:27:19.277Z,54.30
2018-01-15T01:29:46.724Z,54.30
2018-01-15T01:32:14.169Z,54.30
2018-01-15T01:34:41.229Z,54.40
2018-01-15T01:37:07.876Z,54.50
2018-01-15T01:39:34.949Z,54.40
2018-01-15T01:42:02.372Z,54.30
2018-01-15T01:44:29.418Z,54.50
2018-01-15T01:46:56.526Z,54.30
2018-01-15T01:49:23.317Z,54.50
2018-01-15T01:51:56.710Z,54.40
2018-01-15T01:54:24.160Z,54.40
2018-01-15T01:56:51.205Z,54.50
2018-01-15T01:59:18.318Z,54.40
2018-01-15T02:01:45.461Z,54.60
2018-01-15T02:04:12.948Z,54.40
2018-01-15T02:06:39.993Z,54.40
2018-01-15T02:09:06.710Z,54.50
2018-01-15T02:11:33.455Z,54.60
2018-01-15T02:14:00.561Z,54.50
2018-01-15T02:16:27.205Z,54.60
2018-01-15T02:18:56.877Z,54.50
2018-01-15T02:21:23.937Z,54.70
2018-01-15T02:23:51.161Z,54.60
2018-01-15T02:26:19.016Z,54.50
2018-01-15T02:28:46.458Z,54.70
2018-01-15T02:31:13.774Z,54.70
2018-01-15T02:33:40.809Z,54.70
2018-01-15T02:36:07.874Z,54.60
2018-01-15T02:38:38.750Z,54.70
2018-01-15T02:41:05.828Z,54.50
2018-01-15T02:43:32.893Z,54.70
2018-01-15T02:46:02.794Z,54.60
2018-01-15T02:48:30.211Z,54.60
2018-01-15T02:51:02.799Z,54.60
2018-01-15T02:56:08.807Z,54.80
2018-01-15T02:58:35.640Z,54.60
2018-01-15T03:01:02.684Z,54.80
2018-01-15T03:03:29.751Z,54.80
2018-01-15T03:06:02.463Z,54.80
2018-01-15T03:08:29.168Z,54.90
2018-01-15T03:10:57.003Z,54.80
2018-01-15T03:13:24.051Z,54.80
2018-01-15T03:15:50.853Z,54.80
2018-01-15T03:18:20.852Z,54.80
2018-01-15T03:20:47.625Z,54.80
2018-01-15T03:23:15.062Z,54.90
2018-01-15T03:25:41.754Z,55.10
2018-01-15T03:28:08.808Z,55.00
2018-01-15T03:30:35.487Z,55.00
2018-01-15T03:33:02.230Z,55.20
2018-01-15T03:35:38.286Z,55.00
2018-01-15T03:38:05.742Z,55.00
2018-01-15T03:40:32.411Z,55.10
2018-01-15T03:42:59.466Z,55.00
2018-01-15T03:45:32.818Z,55.10
2018-01-15T03:47:59.519Z,55.20
2018-01-15T03:50:26.216Z,55.10
2018-01-15T03:52:53.363Z,55.30
2018-01-15T03:55:20.014Z,55.20
2018-01-15T03:57:47.091Z,55.20
2018-01-15T04:00:20.413Z,55.10
2018-01-15T04:02:50.781Z,55.20
2018-01-15T04:05:18.215Z,55.20
2018-01-15T04:07:50.811Z,55.20
2018-01-15T04:10:18.645Z,55.20
2018-01-15T04:12:45.317Z,55.30
2018-01-15T04:15:11.953Z,55.30
2018-01-15T04:17:44.947Z,55.40
2018-01-15T04:20:12.393Z,55.40
2018-01-15T04:22:39.226Z,55.30
2018-01-15T04:25:05.865Z,55.30
2018-01-15T04:27:32.910Z,55.40
2018-01-15T04:29:59.972Z,55.40
2018-01-15T04:32:27.013Z,55.60
2018-01-15T04:34:54.087Z,55.50
2018-01-15T04:37:20.712Z,55.60
2018-01-15T04:39:47.375Z,55.50
2018-01-15T04:42:14.152Z,55.60
2018-01-15T04:44:41.200Z,55.50
2018-01-15T04:47:08.241Z,55.60
2018-01-15T04:49:38.821Z,55.60
2018-01-15T04:52:06.218Z,55.60
2018-01-15T04:54:33.261Z,55.70
2018-01-15T04:59:40.538Z,55.70
2018-01-15T05:02:07.617Z,55.70
2018-01-15T05:04:35.047Z,55.80
2018-01-15T05:07:01.752Z,55.80
2018-01-15T05:09:29.204Z,55.90
2018-01-15T05:11:56.632Z,55.90
2018-01-15T05:14:24.052Z,55.80
2018-01-15T05:16:50.735Z,55.80
2018-01-15T05:19:17.770Z,55.90
2018-01-15T05:21:44.448Z,55.90
2018-01-15T05:24:11.602Z,56.00
2018-01-15T05:26:38.662Z,56.00
2018-01-15T05:29:05.334Z,56.10
2018-01-15T05:31:31.992Z,56.00
2018-01-15T05:33:58.792Z,56.10
2018-01-15T05:36:25.457Z,56.10
2018-01-15T05:38:52.599Z,56.20
2018-01-15T05:41:20.126Z,56.20
2018-01-15T05:43:47.211Z,56.20
2018-01-15T05:46:14.013Z,56.30
2018-01-15T05:48:41.077Z,56.30
2018-01-15T05:51:08.123Z,56.40
2018-01-15T05:53:34.773Z,56.30
2018-01-15T05:56:01.880Z,56.30
2018-01-15T05:58:28.614Z,56.40
2018-01-15T06:00:55.674Z,56.40
2018-01-15T06:03:22.330Z,56.50
2018-01-15T06:05:49.802Z,56.40
2018-01-15T06:08:16.443Z,56.50
2018-01-15T06:10:43.512Z,56.50
2018-01-15T06:13:10.721Z,56.60
2018-01-15T06:15:38.163Z,56.60
2018-01-15T06:18:04.826Z,56.60
2018-01-15T06:20:31.478Z,56.60
2018-01-15T06:22:58.334Z,56.70
2018-01-15T06:25:25.745Z,56.70
2018-01-15T06:27:53.200Z,56.80
2018-01-15T06:30:20.267Z,56.80
2018-01-15T06:32:46.979Z,56.70
2018-01-15T06:35:14.089Z,56.80
2018-01-15T06:37:41.565Z,56.80
2018-01-15T06:42:47.833Z,56.90
2018-01-15T06:45:15.308Z,57.00
2018-01-15T06:47:42.382Z,56.90
2018-01-15T06:50:09.042Z,57.00
2018-01-15T06:52:36.451Z,57.00
2018-01-15T06:55:03.917Z,57.00
2018-01-15T06:57:30.640Z,57.00
2018-01-15T06:59:57.849Z,57.10
2018-01-15T07:02:24.501Z,57.30
2018-01-15T07:04:54.829Z,57.10
2018-01-15T07:07:21.590Z,57.20
2018-01-15T07:09:48.712Z,57.10
2018-01-15T07:12:15.358Z,57.20
2018-01-15T07:14:42.413Z,57.20
2018-01-15T07:17:09.207Z,57.20
2018-01-15T07:19:36.682Z,57.20
2018-01-15T07:22:03.317Z,57.30
2018-01-15T07:24:29.964Z,57.30
2018-01-15T07:26:57.783Z,57.30
2018-01-15T07:29:25.395Z,57.30
2018-01-15T07:31:52.562Z,57.40
2018-01-15T07:34:21.069Z,57.30
2018-01-15T07:36:48.136Z,57.40
2018-01-15T07:39:18.813Z,57.50
2018-01-15T07:41:45.872Z,57.50
2018-01-15T07:44:13.293Z,57.50
2018-01-15T07:46:40.410Z,57.50
2018-01-15T07:49:07.830Z,57.50
2018-01-15T07:51:34.550Z,57.60
2018-01-15T07:54:01.761Z,57.60
2018-01-15T07:56:28.396Z,57.60
2018-01-15T07:58:55.450Z,57.60
2018-01-15T08:01:22.232Z,57.60
2018-01-15T08:03:48.912Z,57.70
2018-01-15T08:06:15.570Z,57.60
2018-01-15T08:08:42.358Z,57.70
2018-01-15T08:11:18.437Z,57.80
2018-01-15T08:13:48.758Z,57.80
2018-01-15T08:16:15.833Z,57.80
2018-01-15T08:18:43.313Z,57.70
2018-01-15T08:21:10.517Z,57.90
2018-01-15T08:23:37.182Z,57.80
2018-01-15T08:26:04.224Z,57.80
2018-01-15T08:28:30.858Z,58.10
2018-01-15T08:30:57.908Z,57.90
2018-01-15T08:33:24.939Z,58.20
2018-01-15T08:35:52.002Z,58.20
2018-01-15T08:38:19.061Z,58.10
2018-01-15T08:40:45.862Z,58.30
2018-01-15T08:43:13.296Z,58.30
2018-01-15T08:45:41.189Z,58.40
2018-01-15T08:48:08.257Z,58.40
2018-01-15T08:50:36.757Z,58.40
2018-01-15T08:53:03.506Z,58.50
2018-01-15T08:55:30.611Z,58.50
2018-01-15T08:57:58.046Z,58.60
2018-01-15T09:00:24.720Z,58.50
2018-01-15T09:02:51.526Z,58.50
2018-01-15T09:05:18.949Z,58.60
2018-01-15T09:07:46.410Z,58.60
2018-01-15T09:10:14.058Z,58.50
2018-01-15T09:12:42.237Z,58.50
2018-01-15T09:15:09.440Z,58.50
2018-01-15T09:17:36.100Z,58.70
2018-01-15T09:20:02.884Z,58.70
2018-01-15T09:22:29.930Z,58.70
2018-01-15T09:24:57.402Z,58.70
2018-01-15T09:27:25.666Z,58.70
2018-01-15T09:32:24.881Z,58.80
2018-01-15T09:35:00.334Z,58.80
2018-01-15T09:37:30.829Z,58.90
2018-01-15T09:39:57.510Z,58.90
2018-01-15T09:42:24.580Z,59.00
2018-01-15T09:44:54.876Z,59.10
2018-01-15T09:47:21.559Z,58.90
2018-01-15T09:49:48.338Z,59.00
2018-01-15T09:52:15.034Z,59.10
2018-01-15T09:54:42.081Z,59.10
2018-01-15T09:57:08.841Z,59.10
2018-01-15T09:59:35.534Z,59.10
2018-01-15T10:02:02.365Z,59.20
2018-01-15T10:04:29.023Z,59.00
2018-01-15T10:06:56.518Z,59.10
2018-01-15T10:09:23.930Z,59.20
2018-01-15T10:11:51.059Z,59.30
2018-01-15T10:14:18.851Z,59.30
2018-01-15T10:16:47.058Z,59.10
2018-01-15T10:19:14.121Z,59.20
2018-01-15T10:21:41.591Z,59.30
2018-01-15T10:24:09.449Z,59.30
2018-01-15T10:26:36.506Z,59.40
2018-01-15T10:29:06.817Z,59.40
2018-01-15T10:31:33.491Z,59.40
2018-01-15T10:34:00.949Z,59.50
2018-01-15T10:36:27.990Z,59.40
2018-01-15T10:38:54.811Z,59.40
2018-01-15T10:41:22.243Z,59.60
2018-01-15T10:43:48.956Z,59.60
2018-01-15T10:46:15.716Z,59.60
2018-01-15T10:48:42.977Z,59.80
2018-01-15T10:51:10.025Z,59.90
2018-01-15T10:53:37.093Z,60.20
2018-01-15T10:56:03.972Z,59.90
2018-01-15T10:58:36.956Z,59.90
2018-01-15T11:01:09.615Z,60.00
2018-01-15T11:03:37.142Z,60.00
2018-01-15T11:06:03.817Z,60.10
2018-01-15T11:08:31.284Z,60.20
2018-01-15T11:10:58.347Z,60.10
2018-01-15T11:13:25.151Z,60.00
2018-01-15T11:16:00.342Z,60.50
2018-01-15T11:18:30.902Z,60.20
2018-01-15T11:20:58.018Z,60.20
2018-01-15T11:23:30.900Z,60.30
2018-01-15T11:26:00.830Z,60.60
2018-01-15T11:28:30.923Z,60.60
2018-01-15T11:30:59.092Z,60.60
2018-01-15T11:33:25.852Z,60.70
2018-01-15T11:35:52.908Z,60.60
2018-01-15T11:38:19.870Z,60.70
2018-01-15T11:40:47.459Z,60.70
2018-01-15T11:43:14.268Z,60.60
2018-01-15T11:45:40.909Z,60.80
2018-01-15T11:48:07.586Z,60.90
2018-01-15T11:50:34.356Z,60.90
2018-01-15T11:53:01.401Z,61.00
2018-01-15T11:55:29.317Z,61.10
2018-01-15T11:58:00.927Z,60.90
2018-01-15T12:00:28.321Z,61.10
2018-01-15T12:02:55.350Z,61.30
2018-01-15T12:05:22.006Z,61.00
2018-01-15T12:07:48.861Z,61.00
2018-01-15T12:10:15.640Z,60.90
2018-01-15T12:12:42.885Z,61.00
2018-01-15T12:15:10.835Z,61.00
2018-01-15T12:17:38.265Z,61.10
2018-01-15T12:22:33.322Z,61.00
2018-01-15T12:25:00.809Z,61.40
2018-01-15T12:27:27.876Z,61.50
2018-01-15T12:29:54.662Z,61.40
2018-01-15T12:32:22.192Z,61.60
2018-01-15T12:34:48.970Z,61.40
2018-01-15T12:37:16.842Z,61.40
2018-01-15T12:39:44.305Z,61.50
2018-01-15T12:42:10.959Z,61.40
2018-01-15T12:44:38.394Z,61.50
2018-01-15T12:49:47.510Z,61.50
2018-01-15T12:52:14.314Z,61.50
2018-01-15T12:54:41.005Z,61.40
2018-01-15T12:57:07.737Z,61.60
2018-01-15T12:59:34.459Z,61.60
2018-01-15T13:02:01.218Z,61.60
2018-01-15T13:04:27.880Z,61.50
2018-01-15T13:06:55.377Z,61.70
2018-01-15T13:09:22.839Z,61.70
2018-01-15T13:14:18.281Z,61.60
2018-01-15T13:16:45.779Z,62.00
2018-01-15T13:19:12.417Z,62.00
2018-01-15T13:21:39.514Z,62.00
2018-01-15T13:24:12.814Z,61.90
2018-01-15T13:26:39.909Z,61.90
2018-01-15T13:29:06.945Z,62.10
2018-01-15T13:31:33.602Z,62.10
2018-01-15T13:34:00.341Z,62.20
2018-01-15T13:36:27.908Z,62.10
2018-01-15T13:38:54.961Z,62.00
2018-01-15T13:41:22.004Z,62.10
2018-01-15T13:43:48.654Z,62.10
2018-01-15T13:46:15.480Z,62.10
2018-01-15T13:48:42.152Z,62.40
2018-01-15T13:51:09.333Z,62.30
2018-01-15T13:53:36.012Z,62.20
2018-01-15T13:56:12.457Z,62.30
2018-01-15T13:58:39.130Z,62.50
2018-01-15T14:01:06.347Z,62.40
2018-01-15T14:03:33.754Z,62.60
2018-01-15T14:06:00.438Z,62.50
2018-01-15T14:11:16.037Z,62.60
2018-01-15T14:16:21.830Z,62.60
2018-01-15T14:18:48.597Z,62.50
2018-01-15T14:21:16.936Z,62.60
2018-01-15T14:23:43.724Z,62.50
2018-01-15T14:26:18.586Z,62.90
2018-01-15T14:28:46.465Z,62.80
2018-01-15T14:31:13.530Z,62.90
2018-01-15T14:33:40.355Z,62.80
2018-01-15T14:36:07.425Z,62.90
2018-01-15T14:38:34.644Z,63.10
2018-01-15T14:41:01.228Z,62.90
2018-01-15T14:43:28.109Z,63.10
2018-01-15T14:45:54.804Z,63.30
2018-01-15T14:48:21.698Z,63.10
2018-01-15T14:50:49.242Z,63.30
2018-01-15T14:53:15.918Z,62.90
2018-01-15T14:55:43.387Z,63.00
2018-01-15T14:58:18.540Z,63.20
2018-01-15T15:00:54.598Z,63.30
2018-01-15T15:03:21.714Z,63.30
2018-01-15T15:05:48.885Z,63.10
2018-01-15T15:08:16.010Z,63.60
2018-01-15T15:13:23.781Z,63.40
2018-01-15T15:15:50.835Z,63.40
2018-01-15T15:18:17.889Z,63.60
2018-01-15T15:20:44.992Z,63.50
2018-01-15T15:23:11.777Z,63.50
2018-01-15T15:25:38.452Z,63.30
2018-01-15T15:28:05.593Z,63.60
2018-01-15T15:30:33.216Z,63.60
2018-01-15T15:33:00.943Z,63.60
2018-01-15T15:35:27.610Z,63.50
2018-01-15T15:37:54.276Z,63.40
2018-01-15T15:40:20.943Z,63.60
2018-01-15T15:42:48.015Z,63.60
2018-01-15T15:45:15.193Z,63.70
2018-01-15T15:47:42.634Z,63.70
2018-01-15T15:50:09.296Z,63.70
2018-01-15T15:52:35.957Z,63.60
2018-01-15T15:55:02.741Z,63.80
2018-01-15T15:57:36.541Z,63.90
2018-01-15T16:00:03.602Z,63.90
2018-01-15T16:02:30.647Z,63.90
2018-01-15T16:04:57.697Z,64.10
2018-01-15T16:07:24.568Z,63.90
2018-01-15T16:09:51.252Z,64.00
2018-01-15T16:12:18.427Z,64.20
2018-01-15T16:14:54.475Z,64.10
2018-01-15T16:17:21.137Z,64.00
2018-01-15T16:19:48.198Z,64.20
2018-01-15T16:22:14.913Z,64.20
2018-01-15T16:24:42.035Z,64.00
2018-01-15T16:27:09.310Z,64.10
2018-01-15T16:29:36.421Z,64.20
2018-01-15T16:32:03.199Z,64.30
2018-01-15T16:34:29.884Z,64.30
2018-01-15T16:36:56.679Z,64.20
2018-01-15T16:39:24.924Z,64.20
2018-01-15T16:41:52.007Z,64.20
2018-01-15T16:44:18.651Z,64.40
2018-01-15T16:46:45.316Z,64.30
2018-01-15T16:49:12.114Z,64.40
2018-01-15T16:51:38.776Z,64.10
2018-01-15T16:54:05.552Z,64.50
2018-01-15T16:56:32.628Z,64.80
2018-01-15T16:58:59.713Z,64.70
2018-01-15T17:01:27.139Z,64.50
2018-01-15T17:03:53.803Z,64.60
2018-01-15T17:06:24.885Z,64.80
2018-01-15T17:08:51.968Z,64.60
2018-01-15T17:11:18.983Z,64.90
2018-01-15T17:13:46.436Z,64.80
2018-01-15T17:16:14.768Z,64.60
2018-01-15T17:18:41.799Z,64.70
2018-01-15T17:21:08.466Z,65.00
2018-01-15T17:23:35.275Z,65.00
2018-01-15T17:26:01.959Z,65.20
2018-01-15T17:28:29.195Z,65.10
2018-01-15T17:30:55.865Z,65.20
2018-01-15T17:33:23.279Z,65.20
2018-01-15T17:35:50.424Z,65.00
2018-01-15T17:38:18.020Z,65.30
2018-01-15T17:40:45.448Z,65.40
2018-01-15T17:43:13.107Z,65.50
2018-01-15T17:45:40.559Z,65.70
2018-01-15T17:48:13.135Z,65.60
2018-01-15T17:50:40.559Z,65.40
2018-01-15T17:53:07.647Z,65.20
2018-01-15T17:55:34.443Z,65.00
2018-01-15T17:58:02.513Z,64.80
2018-01-15T18:00:29.591Z,64.60
2018-01-15T18:02:57.021Z,64.60
2018-01-15T18:10:33.742Z,64.00
2018-01-15T18:13:07.937Z,64.00
2018-01-15T18:15:35.773Z,64.10
2018-01-15T18:18:04.071Z,64.20
2018-01-15T18:20:31.978Z,63.80
2018-01-15T18:22:58.629Z,63.80
2018-01-15T18:25:25.481Z,63.50
2018-01-15T18:27:52.611Z,63.40
2018-01-15T18:30:19.295Z,63.20
2018-01-15T18:32:46.341Z,63.30
2018-01-15T18:35:13.406Z,63.10
2018-01-15T18:37:40.115Z,63.20
2018-01-15T18:40:13.030Z,63.20
2018-01-15T18:42:40.461Z,63.30
2018-01-15T18:45:07.915Z,63.00
2018-01-15T18:47:34.984Z,63.50
2018-01-15T18:50:03.026Z,63.40
2018-01-15T18:52:36.632Z,63.50
2018-01-15T18:55:04.121Z,63.30
2018-01-15T18:57:30.809Z,63.10
2018-01-15T19:00:06.573Z,63.40
2018-01-15T19:02:33.257Z,63.10
2018-01-15T19:05:01.494Z,63.20
2018-01-15T19:07:28.138Z,63.80
2018-01-15T19:10:01.116Z,63.90
2018-01-15T19:12:36.573Z,64.40
2018-01-15T19:15:07.151Z,64.70
2018-01-15T19:17:33.829Z,64.70
2018-01-15T19:20:01.108Z,64.80
2018-01-15T19:22:27.802Z,65.00
2018-01-15T19:27:42.631Z,65.10
2018-01-15T19:30:09.321Z,65.30
2018-01-15T19:32:36.753Z,65.40
2018-01-15T19:35:18.718Z,65.40
2018-01-15T19:37:46.138Z,65.50
2018-01-15T19:40:13.312Z,65.60
2018-01-15T19:42:40.423Z,65.60
2018-01-15T19:45:13.742Z,65.80
2018-01-15T19:47:47.741Z,65.80
2018-01-15T19:50:20.179Z,65.90
2018-01-15T19:52:52.538Z,65.90
2018-01-15T19:55:25.042Z,65.80
2018-01-15T19:58:00.914Z,65.80
2018-01-15T20:00:33.837Z,66.10
2018-01-15T20:03:06.558Z,66.00
2018-01-15T20:05:39.384Z,66.10
2018-01-15T20:08:12.364Z,66.30
2018-01-15T20:10:48.652Z,66.70
2018-01-15T20:13:16.923Z,66.40
2018-01-15T20:15:43.567Z,66.30
2018-01-15T20:18:13.079Z,66.60
2018-01-15T20:20:39.876Z,66.70
2018-01-15T20:23:07.373Z,66.50
2018-01-15T20:25:34.417Z,66.50
2018-01-15T20:28:01.490Z,66.50
2018-01-15T20:30:28.735Z,66.70
2018-01-15T20:32:55.586Z,66.60
2018-01-15T20:35:22.394Z,66.40
2018-01-15T20:37:49.117Z,66.50
2018-01-15T20:40:16.313Z,66.70
2018-01-15T20:42:43.090Z,66.60
2018-01-15T20:45:10.218Z,66.40
2018-01-15T20:47:43.160Z,66.50
2018-01-15T20:50:13.157Z,66.40
2018-01-15T20:52:40.306Z,66.50
2018-01-15T20:55:07.046Z,66.60
2018-01-15T20:57:34.211Z,66.60
2018-01-15T21:00:00.913Z,66.60
2018-01-15T21:02:27.688Z,66.70
2018-01-15T21:04:54.399Z,66.70
2018-01-15T21:07:21.992Z,66.80
2018-01-15T21:09:48.826Z,67.20
2018-01-15T21:12:16.294Z,67.00
2018-01-15T21:14:43.751Z,66.80
2018-01-15T21:17:10.600Z,67.20
2018-01-15T21:19:37.357Z,67.20
2018-01-15T21:22:04.480Z,67.20
2018-01-15T21:24:31.176Z,67.50
2018-01-15T21:26:58.389Z,67.50
2018-01-15T21:29:25.214Z,67.50
2018-01-15T21:31:52.055Z,67.50
2018-01-15T21:34:25.238Z,67.50
2018-01-15T21:36:51.882Z,67.30
2018-01-15T21:39:18.674Z,67.30
2018-01-15T21:41:45.377Z,67.30
2018-01-15T21:44:13.235Z,67.60
2018-01-15T21:46:43.054Z,67.70
2018-01-15T21:49:10.176Z,67.80
2018-01-15T21:51:37.220Z,68.00
2018-01-15T21:54:07.142Z,67.80
2018-01-15T21:56:33.921Z,67.90
2018-01-15T21:59:00.969Z,67.90
2018-01-15T22:06:38.739Z,68.20
2018-01-15T22:11:34.689Z,68.40
2018-01-15T22:14:01.494Z,68.40
2018-01-15T22:16:28.333Z,68.30
2018-01-15T22:18:55.562Z,68.60
2018-01-15T22:21:24.474Z,68.60
2018-01-15T22:23:51.191Z,69.00
2018-01-15T22:26:18.419Z,68.90
2018-01-15T22:28:45.184Z,68.80
2018-01-15T22:31:12.719Z,68.80
2018-01-15T22:33:40.176Z,69.10
2018-01-15T22:36:06.934Z,69.00
2018-01-15T22:38:34.476Z,69.00
2018-01-15T22:41:01.324Z,68.80
2018-01-15T22:43:31.159Z,68.90
2018-01-15T22:45:58.277Z,69.10
2018-01-15T22:48:25.082Z,69.10
2018-01-15T22:50:51.760Z,68.90
2018-01-15T22:53:18.513Z,69.20
2018-01-15T22:55:45.246Z,69.10
2018-01-15T23:00:40.347Z,69.50
2018-01-15T23:03:07.762Z,69.70
2018-01-15T23:05:37.211Z,69.10
2018-01-15T23:08:04.701Z,69.40
2018-01-15T23:10:31.750Z,69.90
2018-01-15T23:12:58.842Z,70.00
2018-01-15T23:15:25.513Z,70.40
2018-01-15T23:17:52.657Z,69.80
2018-01-15T23:20:25.243Z,69.50
2018-01-15T23:22:52.690Z,70.10
2018-01-15T23:25:20.141Z,69.60
2018-01-15T23:27:46.818Z,69.60
2018-01-15T23:30:19.167Z,69.60
2018-01-15T23:32:49.283Z,69.70
2018-01-15T23:35:19.183Z,69.90
2018-01-15T23:40:31.097Z,69.80
2018-01-15T23:43:06.750Z,69.80
2018-01-15T23:45:33.805Z,69.80
2018-01-15T23:48:00.442Z,70.00
2018-01-15T23:50:27.518Z,70.10
2018-01-15T23:52:54.159Z,70.00
2018-01-15T23:55:20.812Z,70.00
2018-01-15T23:57:47.867Z,70.30
